Forside
METAR-TAF:

METAR-TAF

Lufthavne :

Fairfield County Airport

Lancaster, Ohio, USA

Breddekreds: 39-45-26N, længdekreds: 082-39-48W, højde: 264 m

Aktuelle vejr

Denne rapport blev lavet for 56 minutter siden, kl. 14:53 UTC
Vind 10 kt fra nordvest
Temperatur 17°C
Fugtighed 77%
Tryk 1007 hPa
Sigt: 14.5 km
Overskyet i en højde af 1500 ft

METAR: KLHQ 081453Z AUTO 32010KT 9SM OVC015 17/13 A2974 RMK AO2 SLP067 T01670128 51018

Tid: 11:49 (15:49 UTC)


TAF: fraværende

Vejrobservationer og prognoser fra mere end 4000 lufthavne (METAR og TAF).

De gule og røde prikker repræsenterer de meteorologiske stationer.

Flyt musen over at se navnet på stationen.

Så klik over at se vejr observationer og prognoser.

At skifte det kort: Klik på de grønne knapper med et sort kors for at zoome ind; på den grønne knap med en bindestreg for at zoome ud; eller på de grønne pile for tilstødende kort.


METAR-TAF: